Terminal Aerodrome Forecast
Issued by NWS Norman, OK

Home | Current Version | Previous Version | Text Only | Print | Product List | Glossary On
Versions: 1 2 3 4 5 6 7 8 9 10 11 12 13 14 15 16 17 18 19 20 21 22 23 24 25 26 27 28 29
332
FTUS44 KOUN 140520
TAFOKC
TAF
KOKC 140520Z 1406/1506 17015G22KT P6SM SCT024
     FM141000 18012G20KT P6SM BKN015
     FM141200 19006KT 5SM BR BKN008
     FM141400 35009KT 5SM BR BKN008
     FM141800 36012KT P6SM BKN250
     FM150000 03004KT P6SM BKN250=

USA.gov is the U.S. government's official web portal to all federal, state and local government web resources and services.